sensor_id;sensor_type;location;lat;lon;timestamp;P1;durP1;ratioP1;P2;durP2;ratioP2
3541;SDS011;1785;47.388;8.538;2023-05-07T00:00:46;2.50;;;2.23;;
3541;SDS011;1785;47.388;8.538;2023-05-07T00:03:13;1.63;;;1.53;;
3541;SDS011;1785;47.388;8.538;2023-05-07T00:05:43;2.40;;;2.20;;
3541;SDS011;1785;47.388;8.538;2023-05-07T00:08:10;3.23;;;2.43;;
3541;SDS011;1785;47.388;8.538;2023-05-07T00:10:36;5.80;;;1.93;;
3541;SDS011;1785;47.388;8.538;2023-05-07T00:13:02;4.87;;;3.17;;
3541;SDS011;1785;47.388;8.538;2023-05-07T00:15:28;4.93;;;2.90;;
3541;SDS011;1785;47.388;8.538;2023-05-07T00:17:55;3.77;;;2.40;;
3541;SDS011;1785;47.388;8.538;2023-05-07T00:20:22;2.50;;;2.30;;
3541;SDS011;1785;47.388;8.538;2023-05-07T00:22:49;2.63;;;2.40;;
3541;SDS011;1785;47.388;8.538;2023-05-07T00:25:15;6.40;;;2.20;;
3541;SDS011;1785;47.388;8.538;2023-05-07T00:27:41;2.93;;;1.90;;
3541;SDS011;1785;47.388;8.538;2023-05-07T00:30:07;2.17;;;2.00;;
3541;SDS011;1785;47.388;8.538;2023-05-07T00:32:34;2.37;;;2.17;;
3541;SDS011;1785;47.388;8.538;2023-05-07T00:35:01;2.40;;;2.20;;
3541;SDS011;1785;47.388;8.538;2023-05-07T00:37:27;3.17;;;1.70;;
3541;SDS011;1785;47.388;8.538;2023-05-07T00:39:54;2.77;;;2.30;;
3541;SDS011;1785;47.388;8.538;2023-05-07T00:42:20;3.00;;;2.37;;
3541;SDS011;1785;47.388;8.538;2023-05-07T00:44:46;3.77;;;2.57;;
3541;SDS011;1785;47.388;8.538;2023-05-07T00:47:12;2.47;;;2.27;;
3541;SDS011;1785;47.388;8.538;2023-05-07T00:49:39;3.67;;;2.47;;
3541;SDS011;1785;47.388;8.538;2023-05-07T00:52:08;3.27;;;2.47;;
3541;SDS011;1785;47.388;8.538;2023-05-07T00:54:36;6.00;;;2.47;;
3541;SDS011;1785;47.388;8.538;2023-05-07T00:57:04;2.83;;;2.50;;
3541;SDS011;1785;47.388;8.538;2023-05-07T00:59:31;2.47;;;2.30;;
3541;SDS011;1785;47.388;8.538;2023-05-07T01:01:57;3.03;;;2.40;;
3541;SDS011;1785;47.388;8.538;2023-05-07T01:04:24;2.77;;;2.53;;
3541;SDS011;1785;47.388;8.538;2023-05-07T01:06:51;2.60;;;2.40;;
3541;SDS011;1785;47.388;8.538;2023-05-07T01:09:18;3.50;;;2.63;;
3541;SDS011;1785;47.388;8.538;2023-05-07T01:11:45;2.77;;;2.57;;
3541;SDS011;1785;47.388;8.538;2023-05-07T01:14:13;5.27;;;2.40;;
3541;SDS011;1785;47.388;8.538;2023-05-07T01:16:39;3.70;;;2.57;;
3541;SDS011;1785;47.388;8.538;2023-05-07T01:19:06;4.20;;;2.40;;
3541;SDS011;1785;47.388;8.538;2023-05-07T01:21:35;2.80;;;2.60;;
3541;SDS011;1785;47.388;8.538;2023-05-07T01:24:04;3.30;;;2.60;;
3541;SDS011;1785;47.388;8.538;2023-05-07T01:26:31;3.03;;;2.70;;
3541;SDS011;1785;47.388;8.538;2023-05-07T01:28:57;2.70;;;2.50;;
3541;SDS011;1785;47.388;8.538;2023-05-07T01:31:24;3.47;;;2.60;;
3541;SDS011;1785;47.388;8.538;2023-05-07T01:33:50;3.07;;;2.80;;
3541;SDS011;1785;47.388;8.538;2023-05-07T01:36:18;3.47;;;2.00;;
3541;SDS011;1785;47.388;8.538;2023-05-07T01:38:46;2.90;;;2.70;;
3541;SDS011;1785;47.388;8.538;2023-05-07T01:41:13;2.93;;;2.53;;
3541;SDS011;1785;47.388;8.538;2023-05-07T01:43:39;4.70;;;2.57;;
3541;SDS011;1785;47.388;8.538;2023-05-07T01:46:06;2.33;;;2.20;;
3541;SDS011;1785;47.388;8.538;2023-05-07T01:48:35;3.07;;;2.77;;
3541;SDS011;1785;47.388;8.538;2023-05-07T01:51:01;3.23;;;2.93;;
3541;SDS011;1785;47.388;8.538;2023-05-07T01:53:27;2.80;;;2.60;;
3541;SDS011;1785;47.388;8.538;2023-05-07T01:55:53;5.20;;;3.60;;
3541;SDS011;1785;47.388;8.538;2023-05-07T01:58:20;3.20;;;2.73;;
3541;SDS011;1785;47.388;8.538;2023-05-07T02:00:46;3.20;;;2.90;;
3541;SDS011;1785;47.388;8.538;2023-05-07T02:03:13;3.80;;;3.20;;
3541;SDS011;1785;47.388;8.538;2023-05-07T02:05:39;3.17;;;2.97;;
3541;SDS011;1785;47.388;8.538;2023-05-07T02:08:05;3.33;;;3.10;;
3541;SDS011;1785;47.388;8.538;2023-05-07T02:10:31;6.73;;;3.87;;
3541;SDS011;1785;47.388;8.538;2023-05-07T02:12:57;3.90;;;3.70;;
3541;SDS011;1785;47.388;8.538;2023-05-07T02:15:25;3.53;;;3.33;;
3541;SDS011;1785;47.388;8.538;2023-05-07T02:17:58;3.93;;;3.40;;
3541;SDS011;1785;47.388;8.538;2023-05-07T02:20:25;4.33;;;4.03;;
3541;SDS011;1785;47.388;8.538;2023-05-07T02:22:51;4.30;;;3.90;;
3541;SDS011;1785;47.388;8.538;2023-05-07T02:25:17;5.80;;;4.57;;
3541;SDS011;1785;47.388;8.538;2023-05-07T02:27:43;5.50;;;5.00;;
3541;SDS011;1785;47.388;8.538;2023-05-07T02:30:10;5.00;;;4.60;;
3541;SDS011;1785;47.388;8.538;2023-05-07T02:32:37;7.20;;;5.00;;
3541;SDS011;1785;47.388;8.538;2023-05-07T02:35:03;5.80;;;4.50;;
3541;SDS011;1785;47.388;8.538;2023-05-07T02:37:30;8.63;;;5.23;;
3541;SDS011;1785;47.388;8.538;2023-05-07T02:39:56;6.30;;;4.10;;
3541;SDS011;1785;47.388;8.538;2023-05-07T02:42:22;4.63;;;3.73;;
3541;SDS011;1785;47.388;8.538;2023-05-07T02:44:48;4.90;;;4.00;;
3541;SDS011;1785;47.388;8.538;2023-05-07T02:47:14;3.70;;;3.40;;
3541;SDS011;1785;47.388;8.538;2023-05-07T02:49:41;4.40;;;4.00;;
3541;SDS011;1785;47.388;8.538;2023-05-07T02:52:07;4.83;;;4.43;;
3541;SDS011;1785;47.388;8.538;2023-05-07T02:54:33;13.30;;;4.93;;
3541;SDS011;1785;47.388;8.538;2023-05-07T02:56:59;4.80;;;4.23;;
3541;SDS011;1785;47.388;8.538;2023-05-07T02:59:27;6.40;;;4.90;;
3541;SDS011;1785;47.388;8.538;2023-05-07T03:01:53;5.07;;;4.50;;
3541;SDS011;1785;47.388;8.538;2023-05-07T03:04:19;5.60;;;4.30;;
3541;SDS011;1785;47.388;8.538;2023-05-07T03:06:46;6.03;;;5.00;;
3541;SDS011;1785;47.388;8.538;2023-05-07T03:09:12;5.73;;;5.23;;
3541;SDS011;1785;47.388;8.538;2023-05-07T03:11:38;6.00;;;4.77;;
3541;SDS011;1785;47.388;8.538;2023-05-07T03:14:05;12.37;;;11.23;;
3541;SDS011;1785;47.388;8.538;2023-05-07T03:16:31;7.03;;;6.00;;
3541;SDS011;1785;47.388;8.538;2023-05-07T03:18:57;5.07;;;4.60;;
3541;SDS011;1785;47.388;8.538;2023-05-07T03:21:23;4.53;;;4.10;;
3541;SDS011;1785;47.388;8.538;2023-05-07T03:23:50;4.03;;;3.37;;
3541;SDS011;1785;47.388;8.538;2023-05-07T03:26:16;3.60;;;3.30;;
3541;SDS011;1785;47.388;8.538;2023-05-07T03:28:42;4.27;;;3.87;;
3541;SDS011;1785;47.388;8.538;2023-05-07T03:31:08;3.60;;;3.30;;
3541;SDS011;1785;47.388;8.538;2023-05-07T03:33:34;3.67;;;3.37;;
3541;SDS011;1785;47.388;8.538;2023-05-07T03:36:02;3.40;;;3.20;;
3541;SDS011;1785;47.388;8.538;2023-05-07T03:38:28;3.83;;;3.20;;
3541;SDS011;1785;47.388;8.538;2023-05-07T03:40:55;3.77;;;3.23;;
3541;SDS011;1785;47.388;8.538;2023-05-07T03:43:21;3.47;;;3.20;;
3541;SDS011;1785;47.388;8.538;2023-05-07T03:45:47;3.30;;;3.00;;
3541;SDS011;1785;47.388;8.538;2023-05-07T03:48:13;4.50;;;4.00;;
3541;SDS011;1785;47.388;8.538;2023-05-07T03:50:39;4.67;;;3.57;;
3541;SDS011;1785;47.388;8.538;2023-05-07T03:53:05;5.03;;;3.97;;
3541;SDS011;1785;47.388;8.538;2023-05-07T03:55:32;4.50;;;4.10;;
3541;SDS011;1785;47.388;8.538;2023-05-07T03:57:58;3.80;;;3.50;;
3541;SDS011;1785;47.388;8.538;2023-05-07T04:00:25;4.60;;;3.70;;
3541;SDS011;1785;47.388;8.538;2023-05-07T04:02:51;4.63;;;3.80;;
3541;SDS011;1785;47.388;8.538;2023-05-07T04:05:17;4.60;;;4.30;;
3541;SDS011;1785;47.388;8.538;2023-05-07T04:07:43;4.13;;;3.73;;
3541;SDS011;1785;47.388;8.538;2023-05-07T04:10:09;4.00;;;3.60;;
3541;SDS011;1785;47.388;8.538;2023-05-07T04:12:35;4.83;;;3.87;;
3541;SDS011;1785;47.388;8.538;2023-05-07T04:15:02;5.17;;;4.67;;
3541;SDS011;1785;47.388;8.538;2023-05-07T04:17:29;5.60;;;4.67;;
3541;SDS011;1785;47.388;8.538;2023-05-07T04:19:55;5.20;;;4.80;;
3541;SDS011;1785;47.388;8.538;2023-05-07T04:22:21;6.03;;;5.13;;
3541;SDS011;1785;47.388;8.538;2023-05-07T04:24:47;5.17;;;4.77;;
3541;SDS011;1785;47.388;8.538;2023-05-07T04:27:13;5.73;;;5.00;;
3541;SDS011;1785;47.388;8.538;2023-05-07T04:29:39;5.60;;;5.20;;
3541;SDS011;1785;47.388;8.538;2023-05-07T04:32:08;5.37;;;4.97;;
3541;SDS011;1785;47.388;8.538;2023-05-07T04:34:34;5.00;;;4.53;;
3541;SDS011;1785;47.388;8.538;2023-05-07T04:37:00;6.37;;;5.57;;
3541;SDS011;1785;47.388;8.538;2023-05-07T04:39:26;5.47;;;4.97;;
3541;SDS011;1785;47.388;8.538;2023-05-07T04:41:52;5.80;;;4.50;;
3541;SDS011;1785;47.388;8.538;2023-05-07T04:44:18;6.03;;;5.53;;
3541;SDS011;1785;47.388;8.538;2023-05-07T04:46:44;5.93;;;5.37;;
3541;SDS011;1785;47.388;8.538;2023-05-07T04:49:11;6.97;;;6.27;;
3541;SDS011;1785;47.388;8.538;2023-05-07T04:51:37;6.73;;;6.00;;
3541;SDS011;1785;47.388;8.538;2023-05-07T04:54:03;6.03;;;5.53;;
3541;SDS011;1785;47.388;8.538;2023-05-07T04:56:29;8.00;;;6.37;;
3541;SDS011;1785;47.388;8.538;2023-05-07T04:58:55;6.60;;;6.10;;
3541;SDS011;1785;47.388;8.538;2023-05-07T05:01:21;8.60;;;5.70;;
3541;SDS011;1785;47.388;8.538;2023-05-07T05:03:47;5.90;;;4.97;;
3541;SDS011;1785;47.388;8.538;2023-05-07T05:06:14;6.20;;;5.60;;
3541;SDS011;1785;47.388;8.538;2023-05-07T05:08:40;7.03;;;6.40;;
3541;SDS011;1785;47.388;8.538;2023-05-07T05:11:06;5.60;;;5.10;;
3541;SDS011;1785;47.388;8.538;2023-05-07T05:13:32;6.90;;;5.87;;
3541;SDS011;1785;47.388;8.538;2023-05-07T05:15:58;6.17;;;5.50;;
3541;SDS011;1785;47.388;8.538;2023-05-07T05:18:24;7.17;;;6.40;;
3541;SDS011;1785;47.388;8.538;2023-05-07T05:20:51;6.50;;;5.90;;
3541;SDS011;1785;47.388;8.538;2023-05-07T05:23:17;7.10;;;6.13;;
3541;SDS011;1785;47.388;8.538;2023-05-07T05:25:44;6.60;;;6.00;;
3541;SDS011;1785;47.388;8.538;2023-05-07T05:28:10;6.50;;;6.00;;
3541;SDS011;1785;47.388;8.538;2023-05-07T05:30:36;6.70;;;6.10;;
3541;SDS011;1785;47.388;8.538;2023-05-07T05:33:02;7.00;;;5.90;;
3541;SDS011;1785;47.388;8.538;2023-05-07T05:35:29;6.20;;;5.60;;
3541;SDS011;1785;47.388;8.538;2023-05-07T05:37:55;6.87;;;6.17;;
3541;SDS011;1785;47.388;8.538;2023-05-07T05:40:21;6.40;;;5.80;;
3541;SDS011;1785;47.388;8.538;2023-05-07T05:42:47;7.60;;;5.60;;
3541;SDS011;1785;47.388;8.538;2023-05-07T05:45:13;6.23;;;5.60;;
3541;SDS011;1785;47.388;8.538;2023-05-07T05:47:40;5.87;;;5.47;;
3541;SDS011;1785;47.388;8.538;2023-05-07T05:50:07;6.83;;;6.13;;
3541;SDS011;1785;47.388;8.538;2023-05-07T05:52:33;6.90;;;6.20;;
3541;SDS011;1785;47.388;8.538;2023-05-07T05:54:59;5.90;;;5.40;;
3541;SDS011;1785;47.388;8.538;2023-05-07T05:57:25;7.13;;;6.53;;
3541;SDS011;1785;47.388;8.538;2023-05-07T05:59:51;7.43;;;5.93;;
3541;SDS011;1785;47.388;8.538;2023-05-07T06:02:17;5.97;;;5.47;;
3541;SDS011;1785;47.388;8.538;2023-05-07T06:04:43;6.17;;;5.00;;
3541;SDS011;1785;47.388;8.538;2023-05-07T06:07:10;5.93;;;5.43;;
3541;SDS011;1785;47.388;8.538;2023-05-07T06:09:36;5.80;;;5.20;;
3541;SDS011;1785;47.388;8.538;2023-05-07T06:12:02;6.90;;;5.73;;
3541;SDS011;1785;47.388;8.538;2023-05-07T06:14:29;5.20;;;4.80;;
3541;SDS011;1785;47.388;8.538;2023-05-07T06:16:56;4.93;;;4.53;;
3541;SDS011;1785;47.388;8.538;2023-05-07T06:19:22;4.50;;;4.20;;
3541;SDS011;1785;47.388;8.538;2023-05-07T06:21:49;5.33;;;4.50;;
3541;SDS011;1785;47.388;8.538;2023-05-07T06:24:15;5.47;;;4.97;;
3541;SDS011;1785;47.388;8.538;2023-05-07T06:26:41;5.57;;;5.07;;
3541;SDS011;1785;47.388;8.538;2023-05-07T06:29:07;5.13;;;4.73;;
3541;SDS011;1785;47.388;8.538;2023-05-07T06:31:33;7.03;;;4.97;;
3541;SDS011;1785;47.388;8.538;2023-05-07T06:33:59;6.50;;;5.10;;
3541;SDS011;1785;47.388;8.538;2023-05-07T06:36:27;7.20;;;5.40;;
3541;SDS011;1785;47.388;8.538;2023-05-07T06:38:53;5.77;;;5.07;;
3541;SDS011;1785;47.388;8.538;2023-05-07T06:41:19;5.70;;;5.00;;
3541;SDS011;1785;47.388;8.538;2023-05-07T06:43:46;4.90;;;4.50;;
3541;SDS011;1785;47.388;8.538;2023-05-07T06:46:12;4.50;;;4.10;;
3541;SDS011;1785;47.388;8.538;2023-05-07T06:48:39;4.33;;;3.93;;
3541;SDS011;1785;47.388;8.538;2023-05-07T06:51:05;3.63;;;3.33;;
3541;SDS011;1785;47.388;8.538;2023-05-07T06:53:31;6.00;;;5.40;;
3541;SDS011;1785;47.388;8.538;2023-05-07T06:55:57;7.60;;;4.90;;
3541;SDS011;1785;47.388;8.538;2023-05-07T06:58:23;5.10;;;4.70;;
3541;SDS011;1785;47.388;8.538;2023-05-07T07:00:49;4.73;;;4.23;;
3541;SDS011;1785;47.388;8.538;2023-05-07T07:03:15;5.13;;;4.53;;
3541;SDS011;1785;47.388;8.538;2023-05-07T07:05:42;5.70;;;4.70;;
3541;SDS011;1785;47.388;8.538;2023-05-07T07:08:09;4.50;;;3.93;;
3541;SDS011;1785;47.388;8.538;2023-05-07T07:10:36;4.90;;;4.50;;
3541;SDS011;1785;47.388;8.538;2023-05-07T07:13:02;3.63;;;3.33;;
3541;SDS011;1785;47.388;8.538;2023-05-07T07:15:28;4.97;;;4.57;;
3541;SDS011;1785;47.388;8.538;2023-05-07T07:17:54;5.00;;;3.83;;
3541;SDS011;1785;47.388;8.538;2023-05-07T07:20:20;3.80;;;3.50;;
3541;SDS011;1785;47.388;8.538;2023-05-07T07:22:47;5.97;;;3.23;;
3541;SDS011;1785;47.388;8.538;2023-05-07T07:25:13;3.83;;;3.43;;
3541;SDS011;1785;47.388;8.538;2023-05-07T07:27:39;4.10;;;3.80;;
3541;SDS011;1785;47.388;8.538;2023-05-07T07:30:06;4.97;;;4.47;;
3541;SDS011;1785;47.388;8.538;2023-05-07T07:32:34;6.03;;;3.97;;
3541;SDS011;1785;47.388;8.538;2023-05-07T07:35:00;4.80;;;4.37;;
3541;SDS011;1785;47.388;8.538;2023-05-07T07:37:26;4.93;;;3.90;;
3541;SDS011;1785;47.388;8.538;2023-05-07T07:39:53;3.50;;;3.30;;
3541;SDS011;1785;47.388;8.538;2023-05-07T07:42:20;4.23;;;3.37;;
3541;SDS011;1785;47.388;8.538;2023-05-07T07:44:46;4.40;;;4.00;;
3541;SDS011;1785;47.388;8.538;2023-05-07T07:47:12;3.17;;;2.87;;
3541;SDS011;1785;47.388;8.538;2023-05-07T07:49:38;3.73;;;2.93;;
3541;SDS011;1785;47.388;8.538;2023-05-07T07:52:04;4.50;;;3.90;;
3541;SDS011;1785;47.388;8.538;2023-05-07T07:54:30;3.50;;;3.30;;
3541;SDS011;1785;47.388;8.538;2023-05-07T07:56:58;4.10;;;3.63;;
3541;SDS011;1785;47.388;8.538;2023-05-07T07:59:24;3.30;;;3.00;;
3541;SDS011;1785;47.388;8.538;2023-05-07T08:01:50;3.37;;;3.07;;
3541;SDS011;1785;47.388;8.538;2023-05-07T08:04:18;7.07;;;3.33;;
3541;SDS011;1785;47.388;8.538;2023-05-07T08:06:44;2.70;;;2.50;;
3541;SDS011;1785;47.388;8.538;2023-05-07T08:09:11;3.43;;;2.47;;
3541;SDS011;1785;47.388;8.538;2023-05-07T08:11:38;5.23;;;2.60;;
3541;SDS011;1785;47.388;8.538;2023-05-07T08:14:05;3.00;;;2.80;;
3541;SDS011;1785;47.388;8.538;2023-05-07T08:16:31;2.80;;;2.60;;
3541;SDS011;1785;47.388;8.538;2023-05-07T08:18:57;3.60;;;2.80;;
3541;SDS011;1785;47.388;8.538;2023-05-07T08:21:23;3.37;;;2.30;;
3541;SDS011;1785;47.388;8.538;2023-05-07T08:23:49;3.33;;;2.23;;
3541;SDS011;1785;47.388;8.538;2023-05-07T08:26:15;2.90;;;2.70;;
3541;SDS011;1785;47.388;8.538;2023-05-07T08:28:41;5.57;;;2.77;;
3541;SDS011;1785;47.388;8.538;2023-05-07T08:31:08;2.40;;;2.30;;
3541;SDS011;1785;47.388;8.538;2023-05-07T08:33:34;5.03;;;2.70;;
3541;SDS011;1785;47.388;8.538;2023-05-07T08:36:00;5.60;;;2.70;;
3541;SDS011;1785;47.388;8.538;2023-05-07T08:38:26;3.53;;;3.00;;
3541;SDS011;1785;47.388;8.538;2023-05-07T08:40:53;2.90;;;2.70;;
3541;SDS011;1785;47.388;8.538;2023-05-07T08:43:19;3.50;;;2.93;;
3541;SDS011;1785;47.388;8.538;2023-05-07T08:45:46;2.80;;;2.60;;
3541;SDS011;1785;47.388;8.538;2023-05-07T08:48:18;3.20;;;2.97;;
3541;SDS011;1785;47.388;8.538;2023-05-07T08:50:47;3.30;;;3.00;;
3541;SDS011;1785;47.388;8.538;2023-05-07T08:53:13;3.27;;;2.97;;
3541;SDS011;1785;47.388;8.538;2023-05-07T08:55:42;4.63;;;3.00;;
3541;SDS011;1785;47.388;8.538;2023-05-07T08:58:08;3.20;;;3.00;;
3541;SDS011;1785;47.388;8.538;2023-05-07T09:00:34;4.07;;;3.27;;
3541;SDS011;1785;47.388;8.538;2023-05-07T09:03:02;3.20;;;3.00;;
3541;SDS011;1785;47.388;8.538;2023-05-07T09:05:28;4.50;;;3.50;;
3541;SDS011;1785;47.388;8.538;2023-05-07T09:07:55;3.93;;;3.53;;
3541;SDS011;1785;47.388;8.538;2023-05-07T09:10:24;4.33;;;3.47;;
3541;SDS011;1785;47.388;8.538;2023-05-07T09:12:51;3.00;;;2.80;;
3541;SDS011;1785;47.388;8.538;2023-05-07T09:15:17;5.63;;;3.20;;
3541;SDS011;1785;47.388;8.538;2023-05-07T09:17:44;3.77;;;3.47;;
3541;SDS011;1785;47.388;8.538;2023-05-07T09:20:10;3.73;;;3.43;;
3541;SDS011;1785;47.388;8.538;2023-05-07T09:22:37;3.87;;;3.43;;
3541;SDS011;1785;47.388;8.538;2023-05-07T09:25:04;4.03;;;3.63;;
3541;SDS011;1785;47.388;8.538;2023-05-07T09:27:31;3.67;;;3.10;;
3541;SDS011;1785;47.388;8.538;2023-05-07T09:29:57;5.03;;;3.00;;
3541;SDS011;1785;47.388;8.538;2023-05-07T09:32:24;3.00;;;2.67;;
3541;SDS011;1785;47.388;8.538;2023-05-07T09:34:52;3.27;;;3.07;;
3541;SDS011;1785;47.388;8.538;2023-05-07T09:37:18;3.37;;;3.17;;
3541;SDS011;1785;47.388;8.538;2023-05-07T09:39:46;3.10;;;2.90;;
3541;SDS011;1785;47.388;8.538;2023-05-07T09:42:13;3.50;;;3.20;;
3541;SDS011;1785;47.388;8.538;2023-05-07T09:44:40;3.67;;;3.37;;
3541;SDS011;1785;47.388;8.538;2023-05-07T09:47:08;4.07;;;3.03;;
3541;SDS011;1785;47.388;8.538;2023-05-07T09:49:38;3.97;;;3.67;;
3541;SDS011;1785;47.388;8.538;2023-05-07T09:52:07;4.97;;;3.67;;
3541;SDS011;1785;47.388;8.538;2023-05-07T09:54:35;3.43;;;3.10;;
3541;SDS011;1785;47.388;8.538;2023-05-07T09:57:04;5.57;;;3.20;;
3541;SDS011;1785;47.388;8.538;2023-05-07T09:59:32;4.32;;;3.20;;
3541;SDS011;1785;47.388;8.538;2023-05-07T10:01:58;3.57;;;3.30;;
3541;SDS011;1785;47.388;8.538;2023-05-07T10:04:26;4.03;;;3.33;;
3541;SDS011;1785;47.388;8.538;2023-05-07T10:06:53;4.80;;;3.33;;
3541;SDS011;1785;47.388;8.538;2023-05-07T10:09:20;4.40;;;2.90;;
3541;SDS011;1785;47.388;8.538;2023-05-07T10:11:47;4.60;;;3.77;;
3541;SDS011;1785;47.388;8.538;2023-05-07T10:14:15;3.70;;;3.40;;
3541;SDS011;1785;47.388;8.538;2023-05-07T10:16:42;12.70;;;3.70;;
3541;SDS011;1785;47.388;8.538;2023-05-07T10:19:09;3.60;;;3.20;;
3541;SDS011;1785;47.388;8.538;2023-05-07T10:21:35;4.30;;;3.90;;
3541;SDS011;1785;47.388;8.538;2023-05-07T10:24:04;3.20;;;2.77;;
3541;SDS011;1785;47.388;8.538;2023-05-07T10:26:33;2.90;;;2.60;;
3541;SDS011;1785;47.388;8.538;2023-05-07T10:29:02;3.93;;;3.20;;
3541;SDS011;1785;47.388;8.538;2023-05-07T10:31:45;8.10;;;3.60;;
3541;SDS011;1785;47.388;8.538;2023-05-07T10:34:19;4.87;;;3.20;;
3541;SDS011;1785;47.388;8.538;2023-05-07T10:36:48;3.87;;;2.93;;
3541;SDS011;1785;47.388;8.538;2023-05-07T10:39:16;3.40;;;3.00;;
3541;SDS011;1785;47.388;8.538;2023-05-07T10:41:43;5.03;;;3.17;;
3541;SDS011;1785;47.388;8.538;2023-05-07T10:44:09;3.40;;;3.10;;
3541;SDS011;1785;47.388;8.538;2023-05-07T10:46:36;8.30;;;3.63;;
3541;SDS011;1785;47.388;8.538;2023-05-07T10:49:12;3.60;;;3.27;;
3541;SDS011;1785;47.388;8.538;2023-05-07T10:51:39;4.67;;;3.70;;
3541;SDS011;1785;47.388;8.538;2023-05-07T10:54:21;3.97;;;3.47;;
3541;SDS011;1785;47.388;8.538;2023-05-07T10:56:49;8.17;;;3.33;;
3541;SDS011;1785;47.388;8.538;2023-05-07T10:59:32;3.87;;;3.23;;
3541;SDS011;1785;47.388;8.538;2023-05-07T11:02:05;6.70;;;3.43;;
3541;SDS011;1785;47.388;8.538;2023-05-07T11:04:33;5.60;;;3.47;;
3541;SDS011;1785;47.388;8.538;2023-05-07T11:09:57;5.50;;;3.97;;
3541;SDS011;1785;47.388;8.538;2023-05-07T11:12:46;4.20;;;3.50;;
3541;SDS011;1785;47.388;8.538;2023-05-07T11:15:34;4.93;;;4.30;;
3541;SDS011;1785;47.388;8.538;2023-05-07T11:18:04;4.20;;;3.90;;
3541;SDS011;1785;47.388;8.538;2023-05-07T11:26:25;4.67;;;3.57;;
3541;SDS011;1785;47.388;8.538;2023-05-07T11:28:52;2.97;;;2.70;;
3541;SDS011;1785;47.388;8.538;2023-05-07T11:31:20;3.80;;;3.50;;
3541;SDS011;1785;47.388;8.538;2023-05-07T11:33:47;4.60;;;4.13;;
3541;SDS011;1785;47.388;8.538;2023-05-07T11:36:14;6.17;;;3.40;;
3541;SDS011;1785;47.388;8.538;2023-05-07T11:38:41;5.10;;;3.83;;
3541;SDS011;1785;47.388;8.538;2023-05-07T11:41:07;7.73;;;4.13;;
3541;SDS011;1785;47.388;8.538;2023-05-07T11:43:33;4.60;;;4.20;;
3541;SDS011;1785;47.388;8.538;2023-05-07T11:46:09;4.93;;;4.40;;
3541;SDS011;1785;47.388;8.538;2023-05-07T11:48:58;4.10;;;3.53;;
3541;SDS011;1785;47.388;8.538;2023-05-07T11:51:27;5.63;;;3.67;;
3541;SDS011;1785;47.388;8.538;2023-05-07T11:53:53;6.83;;;4.67;;
3541;SDS011;1785;47.388;8.538;2023-05-07T11:56:19;4.00;;;3.70;;
3541;SDS011;1785;47.388;8.538;2023-05-07T11:58:46;6.50;;;4.60;;
3541;SDS011;1785;47.388;8.538;2023-05-07T12:01:13;5.67;;;4.63;;
3541;SDS011;1785;47.388;8.538;2023-05-07T12:03:41;6.27;;;4.20;;
3541;SDS011;1785;47.388;8.538;2023-05-07T12:06:10;7.23;;;4.13;;
3541;SDS011;1785;47.388;8.538;2023-05-07T12:08:38;4.83;;;3.57;;
3541;SDS011;1785;47.388;8.538;2023-05-07T12:11:06;5.80;;;4.30;;
3541;SDS011;1785;47.388;8.538;2023-05-07T12:13:34;6.07;;;5.23;;
3541;SDS011;1785;47.388;8.538;2023-05-07T12:16:01;4.00;;;3.70;;
3541;SDS011;1785;47.388;8.538;2023-05-07T12:18:28;3.73;;;3.40;;
3541;SDS011;1785;47.388;8.538;2023-05-07T12:20:55;4.77;;;4.07;;
3541;SDS011;1785;47.388;8.538;2023-05-07T12:23:21;6.77;;;4.07;;
3541;SDS011;1785;47.388;8.538;2023-05-07T12:25:48;4.93;;;3.53;;
3541;SDS011;1785;47.388;8.538;2023-05-07T12:28:15;3.80;;;3.50;;
3541;SDS011;1785;47.388;8.538;2023-05-07T12:30:43;4.07;;;3.67;;
3541;SDS011;1785;47.388;8.538;2023-05-07T12:33:10;6.97;;;3.90;;
3541;SDS011;1785;47.388;8.538;2023-05-07T12:38:16;6.40;;;3.80;;
3541;SDS011;1785;47.388;8.538;2023-05-07T12:40:43;4.57;;;4.17;;
3541;SDS011;1785;47.388;8.538;2023-05-07T12:43:16;5.80;;;3.97;;
3541;SDS011;1785;47.388;8.538;2023-05-07T12:45:43;5.13;;;4.00;;
3541;SDS011;1785;47.388;8.538;2023-05-07T12:48:09;4.37;;;3.83;;
3541;SDS011;1785;47.388;8.538;2023-05-07T12:50:36;5.73;;;4.47;;
3541;SDS011;1785;47.388;8.538;2023-05-07T12:53:02;5.30;;;3.87;;
3541;SDS011;1785;47.388;8.538;2023-05-07T12:55:31;4.70;;;3.90;;
3541;SDS011;1785;47.388;8.538;2023-05-07T12:58:00;6.77;;;4.53;;
3541;SDS011;1785;47.388;8.538;2023-05-07T13:00:34;4.67;;;4.27;;
3541;SDS011;1785;47.388;8.538;2023-05-07T13:03:01;4.20;;;3.90;;
3541;SDS011;1785;47.388;8.538;2023-05-07T13:05:27;4.83;;;3.70;;
3541;SDS011;1785;47.388;8.538;2023-05-07T13:07:53;4.83;;;4.50;;
3541;SDS011;1785;47.388;8.538;2023-05-07T13:10:21;5.37;;;4.50;;
3541;SDS011;1785;47.388;8.538;2023-05-07T13:12:47;5.00;;;4.50;;
3541;SDS011;1785;47.388;8.538;2023-05-07T13:15:13;4.63;;;4.23;;
3541;SDS011;1785;47.388;8.538;2023-05-07T13:17:40;4.73;;;4.23;;
3541;SDS011;1785;47.388;8.538;2023-05-07T13:20:06;4.80;;;4.40;;
3541;SDS011;1785;47.388;8.538;2023-05-07T13:22:34;5.70;;;5.13;;
3541;SDS011;1785;47.388;8.538;2023-05-07T13:25:00;6.33;;;4.43;;
3541;SDS011;1785;47.388;8.538;2023-05-07T13:27:26;5.83;;;4.73;;
3541;SDS011;1785;47.388;8.538;2023-05-07T13:29:52;5.40;;;4.53;;
3541;SDS011;1785;47.388;8.538;2023-05-07T13:32:18;5.83;;;5.23;;
3541;SDS011;1785;47.388;8.538;2023-05-07T13:34:45;5.00;;;4.60;;
3541;SDS011;1785;47.388;8.538;2023-05-07T13:37:11;5.57;;;5.07;;
3541;SDS011;1785;47.388;8.538;2023-05-07T13:39:37;8.50;;;3.90;;
3541;SDS011;1785;47.388;8.538;2023-05-07T13:42:03;4.40;;;4.07;;
3541;SDS011;1785;47.388;8.538;2023-05-07T13:44:30;7.20;;;4.10;;
3541;SDS011;1785;47.388;8.538;2023-05-07T13:46:56;3.50;;;3.17;;
3541;SDS011;1785;47.388;8.538;2023-05-07T13:49:22;4.13;;;3.83;;
3541;SDS011;1785;47.388;8.538;2023-05-07T13:51:49;3.90;;;3.63;;
3541;SDS011;1785;47.388;8.538;2023-05-07T13:54:15;4.47;;;4.00;;
3541;SDS011;1785;47.388;8.538;2023-05-07T13:56:41;4.40;;;4.00;;
3541;SDS011;1785;47.388;8.538;2023-05-07T13:59:07;4.40;;;4.00;;
3541;SDS011;1785;47.388;8.538;2023-05-07T14:01:34;3.87;;;3.57;;
3541;SDS011;1785;47.388;8.538;2023-05-07T14:04:00;4.10;;;3.60;;
3541;SDS011;1785;47.388;8.538;2023-05-07T14:06:26;4.53;;;3.07;;
3541;SDS011;1785;47.388;8.538;2023-05-07T14:08:53;3.43;;;3.10;;
3541;SDS011;1785;47.388;8.538;2023-05-07T14:11:19;4.57;;;3.83;;
3541;SDS011;1785;47.388;8.538;2023-05-07T14:13:46;3.50;;;3.20;;
3541;SDS011;1785;47.388;8.538;2023-05-07T14:16:12;4.10;;;2.70;;
3541;SDS011;1785;47.388;8.538;2023-05-07T14:18:38;3.63;;;3.00;;
3541;SDS011;1785;47.388;8.538;2023-05-07T14:21:04;3.10;;;2.80;;
3541;SDS011;1785;47.388;8.538;2023-05-07T14:23:32;2.77;;;2.57;;
3541;SDS011;1785;47.388;8.538;2023-05-07T14:25:59;3.03;;;2.80;;
3541;SDS011;1785;47.388;8.538;2023-05-07T14:28:25;3.63;;;3.03;;
3541;SDS011;1785;47.388;8.538;2023-05-07T14:30:51;2.33;;;2.10;;
3541;SDS011;1785;47.388;8.538;2023-05-07T14:33:17;2.80;;;2.60;;
3541;SDS011;1785;47.388;8.538;2023-05-07T14:35:43;3.50;;;3.20;;
3541;SDS011;1785;47.388;8.538;2023-05-07T14:38:13;2.80;;;2.60;;
3541;SDS011;1785;47.388;8.538;2023-05-07T14:40:39;6.50;;;2.47;;
3541;SDS011;1785;47.388;8.538;2023-05-07T14:43:05;2.80;;;2.60;;
3541;SDS011;1785;47.388;8.538;2023-05-07T14:45:31;2.80;;;2.60;;
3541;SDS011;1785;47.388;8.538;2023-05-07T14:47:57;2.87;;;2.67;;
3541;SDS011;1785;47.388;8.538;2023-05-07T14:50:24;3.50;;;2.80;;
3541;SDS011;1785;47.388;8.538;2023-05-07T14:52:50;3.20;;;3.00;;
3541;SDS011;1785;47.388;8.538;2023-05-07T14:55:16;3.40;;;3.10;;
3541;SDS011;1785;47.388;8.538;2023-05-07T14:57:42;4.43;;;3.37;;
3541;SDS011;1785;47.388;8.538;2023-05-07T15:00:09;3.80;;;3.30;;
3541;SDS011;1785;47.388;8.538;2023-05-07T15:02:36;4.27;;;3.23;;
3541;SDS011;1785;47.388;8.538;2023-05-07T15:05:02;3.67;;;3.23;;
3541;SDS011;1785;47.388;8.538;2023-05-07T15:07:29;4.37;;;3.97;;
3541;SDS011;1785;47.388;8.538;2023-05-07T15:09:57;3.27;;;3.07;;
3541;SDS011;1785;47.388;8.538;2023-05-07T15:12:23;3.07;;;2.87;;
3541;SDS011;1785;47.388;8.538;2023-05-07T15:14:49;5.37;;;3.50;;
3541;SDS011;1785;47.388;8.538;2023-05-07T15:17:16;3.23;;;3.03;;
3541;SDS011;1785;47.388;8.538;2023-05-07T15:19:42;3.70;;;3.40;;
3541;SDS011;1785;47.388;8.538;2023-05-07T15:22:08;3.77;;;3.47;;
3541;SDS011;1785;47.388;8.538;2023-05-07T15:24:34;3.87;;;3.50;;